Flight Track Log - Related Links

Times and Time Zones

All times are in EDT time to prevent confusion due to time zone crossing. See the DAL6231 flight status page for this flight to view local times or setup timezone preferences in your user account.

Time Position Orientation Groundspeed Altitude Reporting Facility
EDT Latitude Longitude Course Direction KTS MPH feet Rate Location/Type
Thu 10:55:11 PM 40.7667 -73.8000 51° Northeast 202 232 2,500  Level New York TRACON
Thu 10:56:11 PM 40.8167 -73.7500 37° Northeast 230 265 5,000 2,300 Climbing New York TRACON
Thu 10:57:11 PM 40.8667 -73.7000 37° Northeast 267 307 7,100 2,054 Climbing New York TRACON
Thu 10:59:00 PM 41.0409 -73.5479 40° Northeast  Level FlightAware Approximate
Thu 11:00:00 PM 41.4257 -73.0294 51° Northeast  Level FlightAware Approximate
Thu 11:00:28 PM 41.0850 -73.4644 40° Northeast 324 373 13,800  Level Boston Center
Thu 11:01:28 PM 41.1733 -73.3667 40° Northeast 364 419 15,500 1,733 Climbing Boston Center
Thu 11:03:28 PM 41.3414 -73.1867 39° Northeast 399 459 19,000 1,667 Climbing Boston Center
Thu 11:04:28 PM 41.4214 -73.0575 50° Northeast 404 465 20,500 1,450 Climbing Boston Center
Thu 11:05:28 PM 41.4803 -72.9167 61° Northeast 415 478 21,900 1,250 Climbing Boston Center
Thu 11:06:28 PM 41.5328 -72.8006 59° Northeast 428 493 23,000 1,150 Climbing Boston Center
Thu 11:07:28 PM 41.6000 -72.6428 60° Northeast 439 505 24,200 1,067 Climbing Boston Center
Thu 11:09:28 PM 41.7375 -72.3317 59° Northeast 473 544 26,200 983 Climbing Boston Center
Thu 11:11:00 PM 41.8162 -72.1206 58° Northeast  Level FlightAware Approximate
Thu 11:13:28 PM 42.0772 -71.7464 32° Northeast 495 570 30,100  Level Boston Center
Thu 11:15:00 PM 42.1830 -71.6420 32° Northeast  Level FlightAware Approximate
Thu 11:18:00 PM 42.4192 -71.4441 32° Northeast  Level FlightAware Approximate
Thu 11:20:28 PM 43.0039 -70.9808 32° Northeast 553 636 33,000  Level Boston Center
Thu 11:21:28 PM 43.1314 -70.8669 33° Northeast 548 631 33,000  Level Boston Center
Thu 11:22:00 PM 42.8647 -71.0659 32° Northeast  Level FlightAware Approximate
Thu 11:23:00 PM 42.9625 -70.9838 31° Northeast  Level FlightAware Approximate
Thu 11:23:00 PM 43.2769 -70.7312 34° Northeast  Level FlightAware Approximate
Thu 11:24:00 PM 43.0602 -70.9017 32° Northeast  Level FlightAware Approximate
Thu 11:25:00 PM 43.1580 -70.8194 32° Northeast  Level FlightAware Approximate
Thu 11:26:19 PM 43.6167 -70.1500 58° Northeast 550 633 33,000  Level Moncton Center
Thu 11:27:19 PM 43.7000 -69.9667 58° Northeast 550 633 33,000  Level Moncton Center
Thu 11:28:19 PM 43.7667 -69.7667 65° Northeast 550 633 33,000  Level Moncton Center
Thu 11:28:40 PM 43.8189 -69.7322 25° Northeast 547 629 33,000  Level Boston Center
Thu 11:30:00 PM 43.7508 -69.8558 58° Northeast  Level FlightAware Approximate
Thu 11:30:19 PM 43.9333 -69.4167 63° Northeast 550 633 33,000  Level Moncton Center
Thu 11:31:00 PM 43.8112 -69.7207 58° Northeast  Level FlightAware Approximate
Thu 11:31:19 PM 44.0333 -69.2333 53° Northeast 550 633 33,000  Level Moncton Center
Thu 11:31:40 PM 44.0569 -69.1839 56° Northeast 547 629 33,000  Level Boston Center
Thu 11:32:40 PM 44.1389 -69.0003 58° Northeast 552 635 33,000  Level Boston Center
Thu 11:33:40 PM 44.2167 -68.8158 59° Northeast 552 635 33,000  Level Boston Center
Thu 11:35:19 PM 44.3333 -68.4833 64° Northeast 540 621 33,000  Level Moncton Center
Thu 11:36:19 PM 44.4167 -68.3000 57° Northeast 540 621 33,000  Level Moncton Center
Thu 11:36:40 PM 44.4464 -68.2753 31° Northeast 542 624 33,000  Level Boston Center
Thu 11:37:40 PM 44.5286 -68.0744 60° Northeast 542 624 33,000  Level Boston Center
Thu 11:38:40 PM 44.6028 -67.8908 60° Northeast 542 624 33,000  Level Boston Center
Thu 11:39:40 PM 44.6811 -67.7094 59° Northeast 542 624 33,000  Level Boston Center
Thu 11:41:19 PM 44.8000 -67.3833 63° Northeast 540 621 33,000  Level Moncton Center
Thu 11:42:19 PM 44.8500 -67.2333 65° Northeast 540 621 33,000  Level Moncton Center
Thu 11:43:19 PM 44.8833 -67.0167 78° East 510 587 33,000  Level Moncton Center
Thu 11:44:19 PM 44.9000 -66.8333 83° East 500 575 33,000  Level Moncton Center
Thu 11:45:19 PM 44.9000 -66.6333 90° East 490 564 33,000  Level Moncton Center
Thu 11:46:19 PM 44.9000 -66.4333 90° East 490 564 33,000  Level Moncton Center
Thu 11:47:19 PM 44.9000 -66.2333 90° East 490 564 33,000  Level Moncton Center
Thu 11:48:19 PM 44.9167 -66.0500 83° East 500 575 33,000  Level Moncton Center
Thu 11:49:19 PM 44.9167 -65.8667 90° East 500 575 33,000  Level Moncton Center
Thu 11:50:19 PM 44.9167 -65.6500 90° East 500 575 33,000  Level Moncton Center
Thu 11:51:19 PM 44.9167 -65.4667 90° East 500 575 33,000 -350 Level Moncton Center
Thu 11:52:19 PM 44.9167 -65.2667 90° East 500 575 32,300 -1,250 Descending Moncton Center
Thu 11:53:19 PM 44.9167 -65.0667 90° East 510 587 30,500 -1,950 Descending Moncton Center
Thu 11:54:19 PM 44.9167 -64.8667 90° East 490 564 28,400 -2,450 Descending Moncton Center
Thu 11:55:19 PM 44.9167 -64.6833 90° East 470 541 25,600 -3,050 Descending Moncton Center
Thu 11:56:19 PM 44.9167 -64.5167 90° East 450 518 22,300 -3,250 Descending Moncton Center
Thu 11:57:19 PM 44.9167 -64.3500 90° East 430 495 19,100 -3,400 Descending Moncton Center
Thu 11:58:19 PM 44.9167 -64.1833 90° East 400 460 15,500 -3,250 Descending Moncton Center
Thu 11:59:19 PM 44.9167 -64.0500 90° East 390 449 12,600 -1,950 Descending Moncton Center
Fri 12:00:19 AM 44.9667 -63.9167 62° Northeast 350 403 11,600 -950 Descending Moncton Center
Fri 12:01:19 AM 45.0000 -63.8333 60° Northeast 300 345 10,700 -950 Descending Moncton Center
Fri 12:02:19 AM 45.0333 -63.7333 65° Northeast 270 311 9,700 -1,000 Descending Moncton Center
Fri 12:03:19 AM 45.0667 -63.6333 65° Northeast 240 276 8,700 -1,000 Descending Moncton Center
Fri 12:04:19 AM 45.0833 -63.5500 74° East 240 276 7,700 -1,050 Descending Moncton Center
Fri 12:05:19 AM 45.1000 -63.4667 74° East 210 242 6,600 -1,250 Descending Moncton Center
Fri 12:06:19 AM 45.0833 -63.4333 125° Southeast 170 196 5,200 -1,550 Descending Moncton Center
Fri 12:07:19 AM 45.0500 -63.3833 133° Southeast 150 173 3,500 -1,400 Descending Moncton Center
Fri 12:08:19 AM 45.0000 -63.3833 180° South 150 173 2,400 -550 Descending Moncton Center
Fri 12:09:19 AM 44.9667 -63.4000 199° South 150 173 2,400 -200 Level Moncton Center
Fri 12:10:19 AM 44.9333 -63.4333 215° Southwest 150 173 2,000 -600 Descending Moncton Center
Fri 12:11:19 AM 44.9000 -63.4833 227° Southwest 150 173 1,200 -750 Descending Moncton Center
Fri 12:12:19 AM 44.8667 -63.5000 200° South 150 173 500 -700 Descending Moncton Center

Login

Don't have an account? Register now (free) for customized features, flight alerts, and more!